Adaville, Iowa
Current Conditions -  °F | °C
As of 5:55 PM on Friday 19 Dec 2014 (Local Time) from KLRJ Reporting Station
Overcast Overcast  
Wind Chill: 24°   Ceiling: 1500
Heat Index: 32°   Visibility: 10mi
Dew Point: 28°   Wind: 9mph
Humidity: 87%   Direction: 190°S
Pressure: 30.12"   Gusts: NA
Location:  42.7082°N, 96.485°W
Report Text: KLRJ 192355Z AUTO 19008KT 10SM OVC015 00/M02 A3012 RMK AO2
Loading
Personal Weather Stations






























Interactive Weather Map New forecast layout! Learn more

10-Day Weather Forecast

Advertisements
Track Severe Weather on mobile